sensor_id;sensor_type;location;lat;lon;timestamp;temperature;humidity
16491;DHT22;8356;51.214;3.270;2023-04-30T00:00:11;333.30;2329.60
16491;DHT22;8356;51.214;3.270;2023-04-30T00:02:37;333.10;2329.60
16491;DHT22;8356;51.214;3.270;2023-04-30T00:05:03;333.00;2329.60
16491;DHT22;8356;51.214;3.270;2023-04-30T00:07:28;333.00;2329.60
16491;DHT22;8356;51.214;3.270;2023-04-30T00:09:54;333.10;2329.60
16491;DHT22;8356;51.214;3.270;2023-04-30T00:12:20;333.00;2329.60
16491;DHT22;8356;51.214;3.270;2023-04-30T00:14:46;332.80;2329.60
16491;DHT22;8356;51.214;3.270;2023-04-30T00:17:11;308.00;2304.00
16491;DHT22;8356;51.214;3.270;2023-04-30T00:19:37;308.00;2304.00
16491;DHT22;8356;51.214;3.270;2023-04-30T00:22:02;332.80;2329.60
16491;DHT22;8356;51.214;3.270;2023-04-30T00:24:29;332.80;2329.60
16491;DHT22;8356;51.214;3.270;2023-04-30T00:26:55;332.80;2329.60
16491;DHT22;8356;51.214;3.270;2023-04-30T00:29:21;333.00;2329.60
16491;DHT22;8356;51.214;3.270;2023-04-30T00:31:47;333.10;2329.60
16491;DHT22;8356;51.214;3.270;2023-04-30T00:34:13;333.10;2329.60
16491;DHT22;8356;51.214;3.270;2023-04-30T00:36:38;333.20;2329.60
16491;DHT22;8356;51.214;3.270;2023-04-30T00:39:05;333.30;2329.60
16491;DHT22;8356;51.214;3.270;2023-04-30T00:41:31;333.30;2329.60
16491;DHT22;8356;51.214;3.270;2023-04-30T00:43:59;333.20;2329.60
16491;DHT22;8356;51.214;3.270;2023-04-30T00:46:26;333.30;2329.60
16491;DHT22;8356;51.214;3.270;2023-04-30T00:48:52;333.20;2329.60
16491;DHT22;8356;51.214;3.270;2023-04-30T00:51:18;332.90;2329.60
16491;DHT22;8356;51.214;3.270;2023-04-30T00:53:44;307.90;2304.00
16491;DHT22;8356;51.214;3.270;2023-04-30T00:56:12;307.50;2304.00
16491;DHT22;8356;51.214;3.270;2023-04-30T00:58:40;282.50;2278.40
16491;DHT22;8356;51.214;3.270;2023-04-30T01:01:06;307.50;2304.00
16491;DHT22;8356;51.214;3.270;2023-04-30T01:03:32;307.90;2304.00
16491;DHT22;8356;51.214;3.270;2023-04-30T01:06:00;307.90;2304.00
16491;DHT22;8356;51.214;3.270;2023-04-30T01:08:26;307.90;2304.00
16491;DHT22;8356;51.214;3.270;2023-04-30T01:13:31;307.90;2304.00
16491;DHT22;8356;51.214;3.270;2023-04-30T01:16:06;332.80;2329.60
16491;DHT22;8356;51.214;3.270;2023-04-30T01:18:45;333.00;2329.60
16491;DHT22;8356;51.214;3.270;2023-04-30T01:21:14;333.00;2329.60
16491;DHT22;8356;51.214;3.270;2023-04-30T01:24:13;333.10;2329.60
16491;DHT22;8356;51.214;3.270;2023-04-30T01:29:23;333.10;2329.60
16491;DHT22;8356;51.214;3.270;2023-04-30T01:31:51;333.10;2329.60
16491;DHT22;8356;51.214;3.270;2023-04-30T01:34:17;333.00;2329.60
16491;DHT22;8356;51.214;3.270;2023-04-30T01:39:56;332.90;2329.60
16491;DHT22;8356;51.214;3.270;2023-04-30T01:42:35;333.00;2329.60
16491;DHT22;8356;51.214;3.270;2023-04-30T01:47:54;332.80;2329.60
16491;DHT22;8356;51.214;3.270;2023-04-30T01:50:28;332.80;2329.60
16491;DHT22;8356;51.214;3.270;2023-04-30T01:52:58;307.90;2304.00
16491;DHT22;8356;51.214;3.270;2023-04-30T01:57:57;282.50;2278.40
16491;DHT22;8356;51.214;3.270;2023-04-30T02:00:24;282.40;2278.40
16491;DHT22;8356;51.214;3.270;2023-04-30T02:02:50;282.30;2278.40
16491;DHT22;8356;51.214;3.270;2023-04-30T02:05:16;282.20;2278.40
16491;DHT22;8356;51.214;3.270;2023-04-30T02:07:44;307.20;2304.00
16491;DHT22;8356;51.214;3.270;2023-04-30T02:10:10;307.60;2304.00
16491;DHT22;8356;51.214;3.270;2023-04-30T02:12:39;307.90;2304.00
16491;DHT22;8356;51.214;3.270;2023-04-30T02:15:05;307.60;2304.00
16491;DHT22;8356;51.214;3.270;2023-04-30T02:17:32;307.20;2304.00
16491;DHT22;8356;51.214;3.270;2023-04-30T02:19:58;307.20;2304.00
16491;DHT22;8356;51.214;3.270;2023-04-30T02:22:24;282.40;2278.40
16491;DHT22;8356;51.214;3.270;2023-04-30T02:24:49;282.30;2278.40
16491;DHT22;8356;51.214;3.270;2023-04-30T02:27:16;282.10;2278.40
16491;DHT22;8356;51.214;3.270;2023-04-30T02:29:42;282.30;2278.40
16491;DHT22;8356;51.214;3.270;2023-04-30T02:32:08;282.30;2278.40
16491;DHT22;8356;51.214;3.270;2023-04-30T02:34:33;282.40;2278.40
16491;DHT22;8356;51.214;3.270;2023-04-30T02:36:59;307.30;2304.00
16491;DHT22;8356;51.214;3.270;2023-04-30T02:39:25;307.50;2304.00
16491;DHT22;8356;51.214;3.270;2023-04-30T02:41:50;307.20;2304.00
16491;DHT22;8356;51.214;3.270;2023-04-30T02:44:16;282.40;2278.40
16491;DHT22;8356;51.214;3.270;2023-04-30T02:46:42;307.20;2304.00
16491;DHT22;8356;51.214;3.270;2023-04-30T02:49:07;282.50;2278.40
16491;DHT22;8356;51.214;3.270;2023-04-30T02:51:33;307.20;2304.00
16491;DHT22;8356;51.214;3.270;2023-04-30T02:53:58;307.20;2304.00
16491;DHT22;8356;51.214;3.270;2023-04-30T02:56:24;282.40;2278.40
16491;DHT22;8356;51.214;3.270;2023-04-30T02:58:50;282.00;2278.40
16491;DHT22;8356;51.214;3.270;2023-04-30T03:01:15;281.80;2278.40
16491;DHT22;8356;51.214;3.270;2023-04-30T03:03:41;256.90;2252.80
16491;DHT22;8356;51.214;3.270;2023-04-30T03:06:07;256.90;2252.80
16491;DHT22;8356;51.214;3.270;2023-04-30T03:08:32;256.80;2252.80
16491;DHT22;8356;51.214;3.270;2023-04-30T03:10:58;256.80;2252.80
16491;DHT22;8356;51.214;3.270;2023-04-30T03:13:23;256.90;2252.80
16491;DHT22;8356;51.214;3.270;2023-04-30T03:15:59;281.60;2278.40
16491;DHT22;8356;51.214;3.270;2023-04-30T03:18:26;282.00;2278.40
16491;DHT22;8356;51.214;3.270;2023-04-30T03:20:52;282.30;2278.40
16491;DHT22;8356;51.214;3.270;2023-04-30T03:23:17;282.30;2278.40
16491;DHT22;8356;51.214;3.270;2023-04-30T03:25:43;282.40;2278.40
16491;DHT22;8356;51.214;3.270;2023-04-30T03:28:08;282.50;2278.40
16491;DHT22;8356;51.214;3.270;2023-04-30T03:30:34;282.50;2278.40
16491;DHT22;8356;51.214;3.270;2023-04-30T03:33:00;282.40;2278.40
16491;DHT22;8356;51.214;3.270;2023-04-30T03:35:26;282.30;2278.40
16491;DHT22;8356;51.214;3.270;2023-04-30T03:37:52;282.20;2278.40
16491;DHT22;8356;51.214;3.270;2023-04-30T03:40:17;282.10;2278.40
16491;DHT22;8356;51.214;3.270;2023-04-30T03:42:43;282.40;2278.40
16491;DHT22;8356;51.214;3.270;2023-04-30T03:45:09;282.50;2278.40
16491;DHT22;8356;51.214;3.270;2023-04-30T03:47:35;307.20;2304.00
16491;DHT22;8356;51.214;3.270;2023-04-30T03:50:02;307.30;2304.00
16491;DHT22;8356;51.214;3.270;2023-04-30T03:52:28;307.20;2304.00
16491;DHT22;8356;51.214;3.270;2023-04-30T03:54:54;307.20;2304.00
16491;DHT22;8356;51.214;3.270;2023-04-30T03:57:20;307.30;2304.00
16491;DHT22;8356;51.214;3.270;2023-04-30T03:59:46;307.90;2304.00
16491;DHT22;8356;51.214;3.270;2023-04-30T04:02:11;282.40;2278.40
16491;DHT22;8356;51.214;3.270;2023-04-30T04:04:37;282.30;2278.40
16491;DHT22;8356;51.214;3.270;2023-04-30T04:07:03;282.40;2278.40
16491;DHT22;8356;51.214;3.270;2023-04-30T04:09:29;282.50;2278.40
16491;DHT22;8356;51.214;3.270;2023-04-30T04:11:55;282.30;2278.40
16491;DHT22;8356;51.214;3.270;2023-04-30T04:14:20;281.90;2278.40
16491;DHT22;8356;51.214;3.270;2023-04-30T04:16:46;281.90;2278.40
16491;DHT22;8356;51.214;3.270;2023-04-30T04:19:12;282.10;2278.40
16491;DHT22;8356;51.214;3.270;2023-04-30T04:21:38;282.10;2278.40
16491;DHT22;8356;51.214;3.270;2023-04-30T04:24:03;282.20;2278.40
16491;DHT22;8356;51.214;3.270;2023-04-30T04:26:34;282.50;2278.40
16491;DHT22;8356;51.214;3.270;2023-04-30T04:29:01;282.50;2278.40
16491;DHT22;8356;51.214;3.270;2023-04-30T04:31:27;307.30;2304.00
16491;DHT22;8356;51.214;3.270;2023-04-30T04:33:54;307.40;2304.00
16491;DHT22;8356;51.214;3.270;2023-04-30T04:36:24;282.20;2278.40
16491;DHT22;8356;51.214;3.270;2023-04-30T04:38:52;307.50;2304.00
16491;DHT22;8356;51.214;3.270;2023-04-30T04:41:18;307.20;2304.00
16491;DHT22;8356;51.214;3.270;2023-04-30T04:43:43;307.20;2304.00
16491;DHT22;8356;51.214;3.270;2023-04-30T04:46:09;307.30;2304.00
16491;DHT22;8356;51.214;3.270;2023-04-30T04:48:35;307.30;2304.00
16491;DHT22;8356;51.214;3.270;2023-04-30T04:51:01;307.90;2304.00
16491;DHT22;8356;51.214;3.270;2023-04-30T04:53:27;282.40;2278.40
16491;DHT22;8356;51.214;3.270;2023-04-30T04:55:52;282.30;2278.40
16491;DHT22;8356;51.214;3.270;2023-04-30T04:58:18;282.50;2278.40
16491;DHT22;8356;51.214;3.270;2023-04-30T05:00:44;307.40;2304.00
16491;DHT22;8356;51.214;3.270;2023-04-30T05:03:09;307.40;2304.00
16491;DHT22;8356;51.214;3.270;2023-04-30T05:05:35;307.40;2304.00
16491;DHT22;8356;51.214;3.270;2023-04-30T05:08:01;307.40;2304.00
16491;DHT22;8356;51.214;3.270;2023-04-30T05:10:26;307.40;2304.00
16491;DHT22;8356;51.214;3.270;2023-04-30T05:12:52;307.50;2304.00
16491;DHT22;8356;51.214;3.270;2023-04-30T05:15:18;307.50;2304.00
16491;DHT22;8356;51.214;3.270;2023-04-30T05:17:44;307.50;2304.00
16491;DHT22;8356;51.214;3.270;2023-04-30T05:20:11;307.50;2304.00
16491;DHT22;8356;51.214;3.270;2023-04-30T05:22:37;307.40;2304.00
16491;DHT22;8356;51.214;3.270;2023-04-30T05:25:02;282.30;2278.40
16491;DHT22;8356;51.214;3.270;2023-04-30T05:27:28;282.10;2278.40
16491;DHT22;8356;51.214;3.270;2023-04-30T05:29:54;282.30;2278.40
16491;DHT22;8356;51.214;3.270;2023-04-30T05:32:21;282.40;2278.40
16491;DHT22;8356;51.214;3.270;2023-04-30T05:34:47;307.30;2304.00
16491;DHT22;8356;51.214;3.270;2023-04-30T05:37:13;307.40;2304.00
16491;DHT22;8356;51.214;3.270;2023-04-30T05:39:39;307.20;2304.00
16491;DHT22;8356;51.214;3.270;2023-04-30T05:42:05;282.30;2278.40
16491;DHT22;8356;51.214;3.270;2023-04-30T05:44:30;282.20;2278.40
16491;DHT22;8356;51.214;3.270;2023-04-30T05:46:56;282.20;2278.40
16491;DHT22;8356;51.214;3.270;2023-04-30T05:49:21;282.50;2278.40
16491;DHT22;8356;51.214;3.270;2023-04-30T05:51:47;307.20;2304.00
16491;DHT22;8356;51.214;3.270;2023-04-30T05:54:13;307.40;2304.00
16491;DHT22;8356;51.214;3.270;2023-04-30T05:56:38;307.60;2304.00
16491;DHT22;8356;51.214;3.270;2023-04-30T05:59:04;307.70;2304.00
16491;DHT22;8356;51.214;3.270;2023-04-30T06:01:30;307.80;2304.00
16491;DHT22;8356;51.214;3.270;2023-04-30T06:03:55;307.80;2304.00
16491;DHT22;8356;51.214;3.270;2023-04-30T06:06:21;307.90;2304.00
16491;DHT22;8356;51.214;3.270;2023-04-30T06:08:47;308.00;2304.00
16491;DHT22;8356;51.214;3.270;2023-04-30T06:11:12;308.10;2304.00
16491;DHT22;8356;51.214;3.270;2023-04-30T06:13:39;332.80;2329.60
16491;DHT22;8356;51.214;3.270;2023-04-30T06:16:06;332.80;2329.60
16491;DHT22;8356;51.214;3.270;2023-04-30T06:18:32;333.00;2329.60
16491;DHT22;8356;51.214;3.270;2023-04-30T06:20:58;332.90;2329.60
16491;DHT22;8356;51.214;3.270;2023-04-30T06:23:23;333.00;2329.60
16491;DHT22;8356;51.214;3.270;2023-04-30T06:25:49;333.00;2329.60
16491;DHT22;8356;51.214;3.270;2023-04-30T06:28:15;333.00;2329.60
16491;DHT22;8356;51.214;3.270;2023-04-30T06:30:40;333.00;2329.60
16491;DHT22;8356;51.214;3.270;2023-04-30T06:33:06;333.10;2329.60
16491;DHT22;8356;51.214;3.270;2023-04-30T06:35:32;333.10;2329.60
16491;DHT22;8356;51.214;3.270;2023-04-30T06:37:57;333.30;2329.60
16491;DHT22;8356;51.214;3.270;2023-04-30T06:40:23;333.40;2329.60
16491;DHT22;8356;51.214;3.270;2023-04-30T06:42:49;333.50;2329.60
16491;DHT22;8356;51.214;3.270;2023-04-30T06:45:14;333.50;2329.60
16491;DHT22;8356;51.214;3.270;2023-04-30T06:47:40;333.50;2329.60
16491;DHT22;8356;51.214;3.270;2023-04-30T06:50:07;333.50;2329.60
16491;DHT22;8356;51.214;3.270;2023-04-30T06:52:33;333.70;2329.60
16491;DHT22;8356;51.214;3.270;2023-04-30T06:54:59;358.40;2329.60
16491;DHT22;8356;51.214;3.270;2023-04-30T06:57:26;358.40;2329.60
16491;DHT22;8356;51.214;3.270;2023-04-30T06:59:52;358.50;2329.60
16491;DHT22;8356;51.214;3.270;2023-04-30T07:02:18;333.40;2329.60
16491;DHT22;8356;51.214;3.270;2023-04-30T07:04:43;358.60;2329.60
16491;DHT22;8356;51.214;3.270;2023-04-30T07:07:09;358.60;2329.60
16491;DHT22;8356;51.214;3.270;2023-04-30T07:09:35;358.60;2329.60
16491;DHT22;8356;51.214;3.270;2023-04-30T07:12:01;358.70;2329.60
16491;DHT22;8356;51.214;3.270;2023-04-30T07:14:27;358.80;2329.60
16491;DHT22;8356;51.214;3.270;2023-04-30T07:16:53;359.00;2329.60
16491;DHT22;8356;51.214;3.270;2023-04-30T07:19:18;359.10;2329.60
16491;DHT22;8356;51.214;3.270;2023-04-30T07:21:44;359.20;2329.60
16491;DHT22;8356;51.214;3.270;2023-04-30T07:24:10;359.30;2329.60
16491;DHT22;8356;51.214;3.270;2023-04-30T07:26:36;384.00;2329.60
16491;DHT22;8356;51.214;3.270;2023-04-30T07:29:03;384.10;2329.60
16491;DHT22;8356;51.214;3.270;2023-04-30T07:31:29;384.30;2329.60
16491;DHT22;8356;51.214;3.270;2023-04-30T07:33:54;384.50;2329.60
16491;DHT22;8356;51.214;3.270;2023-04-30T07:36:21;384.60;2329.60
16491;DHT22;8356;51.214;3.270;2023-04-30T07:38:47;384.80;2329.60
16491;DHT22;8356;51.214;3.270;2023-04-30T07:41:13;384.80;2329.60
16491;DHT22;8356;51.214;3.270;2023-04-30T07:43:38;384.90;2329.60
16491;DHT22;8356;51.214;3.270;2023-04-30T07:46:04;409.60;2355.20
16491;DHT22;8356;51.214;3.270;2023-04-30T07:48:30;409.60;2355.20
16491;DHT22;8356;51.214;3.270;2023-04-30T07:50:55;409.60;2355.20
16491;DHT22;8356;51.214;3.270;2023-04-30T07:53:24;409.90;2355.20
16491;DHT22;8356;51.214;3.270;2023-04-30T07:55:50;410.10;2355.20
16491;DHT22;8356;51.214;3.270;2023-04-30T07:58:16;410.30;2355.20
16491;DHT22;8356;51.214;3.270;2023-04-30T08:00:41;410.50;2355.20
16491;DHT22;8356;51.214;3.270;2023-04-30T08:03:07;435.20;2355.20
16491;DHT22;8356;51.214;3.270;2023-04-30T08:05:33;435.40;2355.20
16491;DHT22;8356;51.214;3.270;2023-04-30T08:07:59;435.50;2355.20
16491;DHT22;8356;51.214;3.270;2023-04-30T08:10:25;435.50;2355.20
16491;DHT22;8356;51.214;3.270;2023-04-30T08:12:51;435.60;2355.20
16491;DHT22;8356;51.214;3.270;2023-04-30T08:15:17;435.80;2355.20
16491;DHT22;8356;51.214;3.270;2023-04-30T08:17:49;436.00;2355.20
16491;DHT22;8356;51.214;3.270;2023-04-30T08:20:15;436.00;2355.20
16491;DHT22;8356;51.214;3.270;2023-04-30T08:22:41;460.90;2380.80
16491;DHT22;8356;51.214;3.270;2023-04-30T08:25:10;461.10;2380.80
16491;DHT22;8356;51.214;3.270;2023-04-30T08:27:36;461.40;2380.80
16491;DHT22;8356;51.214;3.270;2023-04-30T08:30:02;461.50;2380.80
16491;DHT22;8356;51.214;3.270;2023-04-30T08:32:27;461.00;2380.80
16491;DHT22;8356;51.214;3.270;2023-04-30T08:34:53;461.50;2380.80
16491;DHT22;8356;51.214;3.270;2023-04-30T08:37:19;461.60;2380.80
16491;DHT22;8356;51.214;3.270;2023-04-30T08:39:45;461.70;2380.80
16491;DHT22;8356;51.214;3.270;2023-04-30T08:42:13;461.70;2380.80
16491;DHT22;8356;51.214;3.270;2023-04-30T08:44:39;486.50;2380.80
16491;DHT22;8356;51.214;3.270;2023-04-30T08:47:10;486.60;2380.80
16491;DHT22;8356;51.214;3.270;2023-04-30T08:49:39;486.80;2380.80
16491;DHT22;8356;51.214;3.270;2023-04-30T08:52:06;486.80;2380.80
16491;DHT22;8356;51.214;3.270;2023-04-30T08:54:35;487.00;2380.80
16491;DHT22;8356;51.214;3.270;2023-04-30T08:57:01;486.90;2380.80
16491;DHT22;8356;51.214;3.270;2023-04-30T08:59:27;487.00;2380.80
16491;DHT22;8356;51.214;3.270;2023-04-30T09:01:52;487.00;2380.80
16491;DHT22;8356;51.214;3.270;2023-04-30T09:04:18;487.20;2380.80
16491;DHT22;8356;51.214;3.270;2023-04-30T09:06:44;487.20;2380.80
16491;DHT22;8356;51.214;3.270;2023-04-30T09:09:12;512.00;2380.80
16491;DHT22;8356;51.214;3.270;2023-04-30T09:11:38;512.10;2380.80
16491;DHT22;8356;51.214;3.270;2023-04-30T09:14:04;512.20;2380.80
16491;DHT22;8356;51.214;3.270;2023-04-30T09:19:23;512.40;2380.80
16491;DHT22;8356;51.214;3.270;2023-04-30T09:21:49;512.30;2380.80
16491;DHT22;8356;51.214;3.270;2023-04-30T09:24:15;512.40;2380.80
16491;DHT22;8356;51.214;3.270;2023-04-30T09:26:42;512.50;2380.80
16491;DHT22;8356;51.214;3.270;2023-04-30T09:29:08;512.80;2380.80
16491;DHT22;8356;51.214;3.270;2023-04-30T09:31:36;512.90;2380.80
16491;DHT22;8356;51.214;3.270;2023-04-30T09:34:02;537.70;2406.40
16491;DHT22;8356;51.214;3.270;2023-04-30T09:36:28;537.80;2406.40
16491;DHT22;8356;51.214;3.270;2023-04-30T09:38:54;537.80;2406.40
16491;DHT22;8356;51.214;3.270;2023-04-30T09:41:29;537.90;2406.40
16491;DHT22;8356;51.214;3.270;2023-04-30T09:43:55;538.00;2406.40
16491;DHT22;8356;51.214;3.270;2023-04-30T09:46:32;538.10;2406.40
16491;DHT22;8356;51.214;3.270;2023-04-30T09:49:00;538.20;2406.40
16491;DHT22;8356;51.214;3.270;2023-04-30T09:51:26;538.00;2406.40
16491;DHT22;8356;51.214;3.270;2023-04-30T09:53:53;538.30;2406.40
16491;DHT22;8356;51.214;3.270;2023-04-30T18:18:25;486.90;2380.80
16491;DHT22;8356;51.214;3.270;2023-04-30T18:20:51;486.80;2380.80
16491;DHT22;8356;51.214;3.270;2023-04-30T18:23:17;486.70;2380.80
16491;DHT22;8356;51.214;3.270;2023-04-30T18:25:43;486.70;2380.80
16491;DHT22;8356;51.214;3.270;2023-04-30T18:28:09;486.70;2380.80
16491;DHT22;8356;51.214;3.270;2023-04-30T18:30:35;486.60;2380.80
16491;DHT22;8356;51.214;3.270;2023-04-30T18:33:02;486.60;2380.80
16491;DHT22;8356;51.214;3.270;2023-04-30T18:35:29;486.50;2380.80
16491;DHT22;8356;51.214;3.270;2023-04-30T18:37:55;486.40;2380.80
16491;DHT22;8356;51.214;3.270;2023-04-30T18:40:22;486.40;2380.80
16491;DHT22;8356;51.214;3.270;2023-04-30T18:42:48;486.40;2380.80
16491;DHT22;8356;51.214;3.270;2023-04-30T18:45:13;486.40;2380.80
16491;DHT22;8356;51.214;3.270;2023-04-30T18:47:40;461.70;2380.80
16491;DHT22;8356;51.214;3.270;2023-04-30T18:50:06;461.60;2380.80
16491;DHT22;8356;51.214;3.270;2023-04-30T18:52:38;486.40;2380.80
16491;DHT22;8356;51.214;3.270;2023-04-30T18:55:04;486.50;2380.80
16491;DHT22;8356;51.214;3.270;2023-04-30T18:57:32;486.60;2380.80
16491;DHT22;8356;51.214;3.270;2023-04-30T18:59:58;486.60;2380.80
16491;DHT22;8356;51.214;3.270;2023-04-30T19:02:23;486.60;2380.80
16491;DHT22;8356;51.214;3.270;2023-04-30T19:04:50;486.60;2380.80
16491;DHT22;8356;51.214;3.270;2023-04-30T19:07:16;486.40;2380.80
16491;DHT22;8356;51.214;3.270;2023-04-30T19:09:42;486.40;2380.80
16491;DHT22;8356;51.214;3.270;2023-04-30T19:12:10;486.40;2380.80
16491;DHT22;8356;51.214;3.270;2023-04-30T19:14:36;461.70;2380.80
16491;DHT22;8356;51.214;3.270;2023-04-30T19:17:02;461.70;2380.80
16491;DHT22;8356;51.214;3.270;2023-04-30T19:19:28;486.40;2380.80
16491;DHT22;8356;51.214;3.270;2023-04-30T19:21:54;461.70;2380.80
16491;DHT22;8356;51.214;3.270;2023-04-30T19:24:19;486.40;2380.80
16491;DHT22;8356;51.214;3.270;2023-04-30T19:26:46;486.40;2380.80
16491;DHT22;8356;51.214;3.270;2023-04-30T19:29:12;461.70;2380.80
16491;DHT22;8356;51.214;3.270;2023-04-30T19:31:37;461.70;2380.80
16491;DHT22;8356;51.214;3.270;2023-04-30T19:34:03;486.40;2380.80
16491;DHT22;8356;51.214;3.270;2023-04-30T19:36:29;486.40;2380.80
16491;DHT22;8356;51.214;3.270;2023-04-30T19:38:55;461.70;2380.80
16491;DHT22;8356;51.214;3.270;2023-04-30T19:41:20;486.40;2380.80
16491;DHT22;8356;51.214;3.270;2023-04-30T19:43:46;461.70;2380.80
16491;DHT22;8356;51.214;3.270;2023-04-30T19:46:12;461.60;2380.80
16491;DHT22;8356;51.214;3.270;2023-04-30T19:48:38;461.60;2380.80
16491;DHT22;8356;51.214;3.270;2023-04-30T19:51:04;461.40;2380.80
16491;DHT22;8356;51.214;3.270;2023-04-30T19:53:30;461.50;2380.80
16491;DHT22;8356;51.214;3.270;2023-04-30T19:55:56;461.40;2380.80
16491;DHT22;8356;51.214;3.270;2023-04-30T19:58:21;461.40;2380.80
16491;DHT22;8356;51.214;3.270;2023-04-30T20:00:48;461.40;2380.80
16491;DHT22;8356;51.214;3.270;2023-04-30T20:03:15;461.30;2380.80
16491;DHT22;8356;51.214;3.270;2023-04-30T20:05:41;461.20;2380.80
16491;DHT22;8356;51.214;3.270;2023-04-30T20:08:08;461.20;2380.80
16491;DHT22;8356;51.214;3.270;2023-04-30T20:10:35;461.10;2380.80
16491;DHT22;8356;51.214;3.270;2023-04-30T20:13:02;461.00;2380.80
16491;DHT22;8356;51.214;3.270;2023-04-30T20:15:28;460.90;2380.80
16491;DHT22;8356;51.214;3.270;2023-04-30T20:17:55;460.90;2380.80
16491;DHT22;8356;51.214;3.270;2023-04-30T20:20:21;460.80;2380.80
16491;DHT22;8356;51.214;3.270;2023-04-30T20:22:53;436.10;2355.20
16491;DHT22;8356;51.214;3.270;2023-04-30T20:25:21;436.10;2355.20
16491;DHT22;8356;51.214;3.270;2023-04-30T20:27:47;436.10;2355.20
16491;DHT22;8356;51.214;3.270;2023-04-30T20:30:13;436.00;2355.20
16491;DHT22;8356;51.214;3.270;2023-04-30T20:32:39;435.90;2355.20
16491;DHT22;8356;51.214;3.270;2023-04-30T20:35:06;436.10;2355.20
16491;DHT22;8356;51.214;3.270;2023-04-30T20:37:32;436.10;2355.20
16491;DHT22;8356;51.214;3.270;2023-04-30T20:39:59;460.80;2380.80
16491;DHT22;8356;51.214;3.270;2023-04-30T20:42:25;460.90;2380.80
16491;DHT22;8356;51.214;3.270;2023-04-30T20:44:52;460.80;2380.80
16491;DHT22;8356;51.214;3.270;2023-04-30T20:47:18;460.80;2380.80
16491;DHT22;8356;51.214;3.270;2023-04-30T20:49:43;436.00;2355.20
16491;DHT22;8356;51.214;3.270;2023-04-30T20:52:09;436.00;2355.20
16491;DHT22;8356;51.214;3.270;2023-04-30T20:54:39;436.10;2355.20
16491;DHT22;8356;51.214;3.270;2023-04-30T20:57:05;460.80;2380.80
16491;DHT22;8356;51.214;3.270;2023-04-30T20:59:33;460.90;2380.80
16491;DHT22;8356;51.214;3.270;2023-04-30T21:01:59;461.00;2380.80
16491;DHT22;8356;51.214;3.270;2023-04-30T21:04:24;461.00;2380.80
16491;DHT22;8356;51.214;3.270;2023-04-30T21:06:50;461.00;2380.80
16491;DHT22;8356;51.214;3.270;2023-04-30T21:09:16;460.90;2380.80
16491;DHT22;8356;51.214;3.270;2023-04-30T21:11:41;436.10;2355.20
16491;DHT22;8356;51.214;3.270;2023-04-30T21:14:07;435.90;2355.20
16491;DHT22;8356;51.214;3.270;2023-04-30T21:16:33;461.00;2380.80
16491;DHT22;8356;51.214;3.270;2023-04-30T21:18:59;435.80;2355.20
16491;DHT22;8356;51.214;3.270;2023-04-30T21:21:25;435.60;2355.20
16491;DHT22;8356;51.214;3.270;2023-04-30T21:23:54;435.50;2355.20
16491;DHT22;8356;51.214;3.270;2023-04-30T21:26:19;435.50;2355.20
16491;DHT22;8356;51.214;3.270;2023-04-30T21:28:46;435.60;2355.20
16491;DHT22;8356;51.214;3.270;2023-04-30T21:31:12;435.70;2355.20
16491;DHT22;8356;51.214;3.270;2023-04-30T21:33:38;435.70;2355.20
16491;DHT22;8356;51.214;3.270;2023-04-30T21:36:05;435.70;2355.20
16491;DHT22;8356;51.214;3.270;2023-04-30T21:38:30;435.90;2355.20
16491;DHT22;8356;51.214;3.270;2023-04-30T21:40:56;436.00;2355.20
16491;DHT22;8356;51.214;3.270;2023-04-30T21:43:22;436.10;2355.20
16491;DHT22;8356;51.214;3.270;2023-04-30T21:45:48;436.10;2355.20
16491;DHT22;8356;51.214;3.270;2023-04-30T21:48:14;436.10;2355.20
16491;DHT22;8356;51.214;3.270;2023-04-30T21:50:40;460.80;2380.80
16491;DHT22;8356;51.214;3.270;2023-04-30T21:53:05;460.80;2380.80
16491;DHT22;8356;51.214;3.270;2023-04-30T21:55:31;436.10;2355.20
16491;DHT22;8356;51.214;3.270;2023-04-30T21:57:57;460.80;2380.80
16491;DHT22;8356;51.214;3.270;2023-04-30T22:00:23;436.00;2355.20
16491;DHT22;8356;51.214;3.270;2023-04-30T22:02:49;435.80;2355.20
16491;DHT22;8356;51.214;3.270;2023-04-30T22:05:16;435.80;2355.20
16491;DHT22;8356;51.214;3.270;2023-04-30T22:07:42;435.70;2355.20
16491;DHT22;8356;51.214;3.270;2023-04-30T22:10:08;435.70;2355.20
16491;DHT22;8356;51.214;3.270;2023-04-30T22:12:35;435.80;2355.20
16491;DHT22;8356;51.214;3.270;2023-04-30T22:15:01;435.70;2355.20
16491;DHT22;8356;51.214;3.270;2023-04-30T22:17:27;435.60;2355.20
16491;DHT22;8356;51.214;3.270;2023-04-30T22:19:56;435.50;2355.20
16491;DHT22;8356;51.214;3.270;2023-04-30T22:22:23;435.50;2355.20
16491;DHT22;8356;51.214;3.270;2023-04-30T22:24:48;435.40;2355.20
16491;DHT22;8356;51.214;3.270;2023-04-30T22:27:14;435.40;2355.20
16491;DHT22;8356;51.214;3.270;2023-04-30T22:29:41;435.50;2355.20
16491;DHT22;8356;51.214;3.270;2023-04-30T22:32:07;435.50;2355.20
16491;DHT22;8356;51.214;3.270;2023-04-30T22:34:40;435.50;2355.20
16491;DHT22;8356;51.214;3.270;2023-04-30T22:37:07;435.50;2355.20
16491;DHT22;8356;51.214;3.270;2023-04-30T22:39:35;435.40;2355.20
16491;DHT22;8356;51.214;3.270;2023-04-30T22:42:01;435.40;2355.20
16491;DHT22;8356;51.214;3.270;2023-04-30T22:44:28;435.40;2355.20
16491;DHT22;8356;51.214;3.270;2023-04-30T22:46:55;435.40;2355.20
16491;DHT22;8356;51.214;3.270;2023-04-30T22:49:23;435.50;2355.20
16491;DHT22;8356;51.214;3.270;2023-04-30T22:51:49;435.40;2355.20
16491;DHT22;8356;51.214;3.270;2023-04-30T22:54:15;435.40;2355.20
16491;DHT22;8356;51.214;3.270;2023-04-30T22:56:41;435.30;2355.20
16491;DHT22;8356;51.214;3.270;2023-04-30T22:59:07;435.20;2355.20
16491;DHT22;8356;51.214;3.270;2023-04-30T23:01:33;435.30;2355.20
16491;DHT22;8356;51.214;3.270;2023-04-30T23:04:00;435.40;2355.20
16491;DHT22;8356;51.214;3.270;2023-04-30T23:06:27;435.40;2355.20
16491;DHT22;8356;51.214;3.270;2023-04-30T23:08:54;435.20;2355.20
16491;DHT22;8356;51.214;3.270;2023-04-30T23:11:20;435.20;2355.20
16491;DHT22;8356;51.214;3.270;2023-04-30T23:13:45;435.20;2355.20
16491;DHT22;8356;51.214;3.270;2023-04-30T23:16:11;410.50;2355.20
16491;DHT22;8356;51.214;3.270;2023-04-30T23:18:37;410.50;2355.20
16491;DHT22;8356;51.214;3.270;2023-04-30T23:21:03;410.40;2355.20
16491;DHT22;8356;51.214;3.270;2023-04-30T23:23:30;410.30;2355.20
16491;DHT22;8356;51.214;3.270;2023-04-30T23:25:56;410.30;2355.20
16491;DHT22;8356;51.214;3.270;2023-04-30T23:28:23;410.50;2355.20
16491;DHT22;8356;51.214;3.270;2023-04-30T23:30:50;435.30;2355.20
16491;DHT22;8356;51.214;3.270;2023-04-30T23:33:16;435.30;2355.20
16491;DHT22;8356;51.214;3.270;2023-04-30T23:35:42;435.50;2355.20